Fort MacKay, Canada
Current Conditions -  °F | °C
As of 8:00 PM on Friday 19 Dec 2014 (Local Time) from CYMM Reporting Station
Broken Clouds Broken Clouds  
Wind Chill:   Ceiling: 20000
Heat Index: 14°   Visibility: 9mi
Dew Point: 12°   Wind: 12mph
Humidity: 93%   Direction: 90°E
Pressure: 29.71"   Gusts: NA
Location:  57°N, 111.48°W
Report Text: CYMM 200300Z AUTO 09010KT 9SM SCT120 BKN200 BKN220 M10/M11 A2971 RMK SLP094
Loading
Personal Weather Stations






























Interactive Weather Map New forecast layout! Learn more

10-Day Weather Forecast

Advertisements
Track Severe Weather on mobile